createdAt,value
2023-04-16T00:00:39.571Z,14.35
2023-04-16T00:03:06.383Z,14.82
2023-04-16T00:05:33.002Z,12.98
2023-04-16T00:07:59.521Z,10.93
2023-04-16T00:10:26.060Z,13.27
2023-04-16T00:12:52.558Z,13.80
2023-04-16T00:15:19.096Z,21.45
2023-04-16T00:17:45.743Z,7.30
2023-04-16T00:20:12.422Z,13.32
2023-04-16T00:22:39.446Z,16.10
2023-04-16T00:25:06.331Z,9.45
2023-04-16T00:27:32.949Z,14.45
2023-04-16T00:29:59.482Z,19.15
2023-04-16T00:32:26.116Z,25.40
2023-04-16T00:34:52.705Z,15.02
2023-04-16T00:37:19.212Z,21.85
2023-04-16T00:39:45.747Z,14.25
2023-04-16T00:42:12.287Z,17.92
2023-04-16T00:44:38.764Z,14.88
2023-04-16T00:47:07.503Z,21.63
2023-04-16T00:49:34.183Z,13.70
2023-04-16T00:52:02.483Z,16.80
2023-04-16T00:54:29.273Z,10.70
2023-04-16T00:56:56.690Z,12.98
2023-04-16T00:59:23.166Z,13.27
2023-04-16T01:01:49.786Z,9.20
2023-04-16T01:04:16.510Z,14.27
2023-04-16T01:06:43.130Z,14.90
2023-04-16T01:09:12.892Z,12.43
2023-04-16T01:11:39.915Z,15.30
2023-04-16T01:14:06.643Z,11.55
2023-04-16T01:16:33.126Z,16.10
2023-04-16T01:18:59.771Z,14.15
2023-04-16T01:21:26.557Z,12.85
2023-04-16T01:23:53.040Z,13.55
2023-04-16T01:26:19.538Z,12.40
2023-04-16T01:28:46.289Z,16.20
2023-04-16T01:31:12.865Z,10.02
2023-04-16T01:33:39.411Z,13.32
2023-04-16T01:36:06.207Z,10.57
2023-04-16T01:38:32.716Z,18.88
2023-04-16T01:40:59.657Z,8.35
2023-04-16T01:43:26.258Z,19.42
2023-04-16T01:45:57.019Z,12.43
2023-04-16T01:48:23.530Z,17.77
2023-04-16T01:50:50.205Z,12.32
2023-04-16T01:53:16.721Z,13.80
2023-04-16T01:55:43.205Z,13.77
2023-04-16T01:58:11.039Z,10.85
2023-04-16T02:00:37.735Z,11.52
2023-04-16T02:03:04.549Z,12.95
2023-04-16T02:05:31.281Z,12.18
2023-04-16T02:07:57.752Z,9.55
2023-04-16T02:10:24.250Z,12.70
2023-04-16T02:12:51.260Z,11.63
2023-04-16T02:15:17.858Z,9.75
2023-04-16T02:17:46.358Z,13.98
2023-04-16T02:22:39.331Z,14.43
2023-04-16T02:25:06.044Z,9.82
2023-04-16T02:27:32.787Z,8.48
2023-04-16T02:29:59.347Z,15.40
2023-04-16T02:32:25.891Z,11.38
2023-04-16T02:34:52.392Z,14.68
2023-04-16T02:37:18.855Z,11.23
2023-04-16T02:39:46.317Z,13.07
2023-04-16T02:42:13.359Z,11.02
2023-04-16T02:44:39.902Z,12.15
2023-04-16T02:47:06.400Z,10.25
2023-04-16T02:49:33.018Z,16.30
2023-04-16T02:51:59.498Z,16.98
2023-04-16T02:54:26.025Z,24.02
2023-04-16T02:56:52.548Z,10.48
2023-04-16T02:59:19.038Z,18.83
2023-04-16T03:01:45.556Z,23.92
2023-04-16T03:04:12.065Z,20.92
2023-04-16T03:06:38.639Z,16.55
2023-04-16T03:09:05.154Z,14.80
2023-04-16T03:11:31.747Z,16.58
2023-04-16T03:13:58.287Z,21.25
2023-04-16T03:16:24.809Z,11.52
2023-04-16T03:18:51.370Z,10.68
2023-04-16T03:21:17.900Z,14.18
2023-04-16T03:23:44.409Z,21.02
2023-04-16T03:26:10.912Z,10.77
2023-04-16T03:28:37.420Z,13.90
2023-04-16T03:31:04.358Z,15.13
2023-04-16T03:33:31.203Z,17.38
2023-04-16T03:35:58.630Z,18.00
2023-04-16T03:38:26.624Z,16.08
2023-04-16T03:40:53.317Z,12.75
2023-04-16T03:43:19.896Z,15.57
2023-04-16T03:45:47.131Z,20.83
2023-04-16T03:48:13.802Z,18.80
2023-04-16T03:50:40.546Z,16.60
2023-04-16T03:53:07.057Z,17.42
2023-04-16T03:55:33.604Z,16.13
2023-04-16T03:58:03.124Z,14.48
2023-04-16T04:00:30.509Z,13.23
2023-04-16T04:02:57.355Z,13.35
2023-04-16T04:05:24.113Z,17.10
2023-04-16T04:07:50.616Z,13.90
2023-04-16T04:10:17.122Z,16.45
2023-04-16T04:12:44.105Z,17.33
2023-04-16T04:15:11.630Z,17.25
2023-04-16T04:17:38.287Z,14.13
2023-04-16T04:20:05.374Z,12.45
2023-04-16T04:22:31.900Z,13.45
2023-04-16T04:24:58.471Z,14.75
2023-04-16T04:27:25.024Z,17.02
2023-04-16T04:29:51.557Z,17.80
2023-04-16T04:32:18.224Z,14.60
2023-04-16T04:34:44.756Z,18.27
2023-04-16T04:37:11.503Z,21.98
2023-04-16T04:39:38.092Z,21.10
2023-04-16T04:42:04.768Z,16.60
2023-04-16T04:44:31.359Z,20.30
2023-04-16T04:46:57.860Z,17.25
2023-04-16T04:49:24.373Z,13.77
2023-04-16T04:51:50.942Z,15.88
2023-04-16T04:54:17.471Z,15.98
2023-04-16T04:56:45.878Z,22.17
2023-04-16T04:59:12.730Z,21.90
2023-04-16T05:01:39.334Z,22.92
2023-04-16T05:04:06.214Z,13.90
2023-04-16T05:06:32.792Z,22.52
2023-04-16T05:08:59.261Z,27.30
2023-04-16T05:11:25.956Z,15.88
2023-04-16T05:13:52.411Z,24.48
2023-04-16T05:16:18.920Z,17.13
2023-04-16T05:18:45.541Z,19.60
2023-04-16T05:21:12.082Z,19.58
2023-04-16T05:23:38.632Z,21.80
2023-04-16T05:26:05.301Z,12.82
2023-04-16T05:28:32.061Z,30.08
2023-04-16T05:30:58.603Z,14.60
2023-04-16T05:33:25.252Z,15.75
2023-04-16T05:35:51.818Z,19.77
2023-04-16T05:38:18.694Z,16.02
2023-04-16T05:40:45.384Z,13.48
2023-04-16T05:43:11.948Z,18.48
2023-04-16T05:45:41.184Z,12.48
2023-04-16T05:48:10.967Z,15.07
2023-04-16T05:50:38.045Z,11.95
2023-04-16T05:53:06.741Z,16.33
2023-04-16T05:55:33.575Z,16.27
2023-04-16T05:58:00.155Z,20.95
2023-04-16T06:00:27.215Z,17.38
2023-04-16T06:02:53.996Z,17.98
2023-04-16T06:05:20.671Z,13.98
2023-04-16T06:07:47.388Z,13.20
2023-04-16T06:10:13.881Z,21.05
2023-04-16T06:12:40.502Z,17.73
2023-04-16T06:15:07.719Z,11.52
2023-04-16T06:17:34.274Z,15.27
2023-04-16T06:20:01.138Z,23.05
2023-04-16T06:22:27.771Z,18.30
2023-04-16T06:24:54.305Z,11.00
2023-04-16T06:27:21.178Z,17.05
2023-04-16T06:29:47.693Z,14.68
2023-04-16T06:32:14.247Z,15.10
2023-04-16T06:34:40.945Z,18.75
2023-04-16T06:37:10.340Z,13.98
2023-04-16T06:39:37.353Z,24.27
2023-04-16T06:42:04.243Z,16.38
2023-04-16T06:44:30.782Z,11.75
2023-04-16T06:46:57.337Z,18.48
2023-04-16T06:49:23.881Z,18.23
2023-04-16T06:51:50.508Z,23.60
2023-04-16T06:54:17.030Z,23.17
2023-04-16T06:56:43.512Z,13.45
2023-04-16T06:59:10.259Z,17.80
2023-04-16T07:01:37.270Z,13.43
2023-04-16T07:04:04.451Z,17.08
2023-04-16T07:06:31.910Z,15.07
2023-04-16T07:08:58.401Z,12.68
2023-04-16T07:11:25.921Z,13.05
2023-04-16T07:13:53.870Z,14.10
2023-04-16T07:16:20.650Z,16.77
2023-04-16T07:18:47.217Z,12.82
2023-04-16T07:21:13.748Z,11.30
2023-04-16T07:23:40.265Z,14.45
2023-04-16T07:26:06.749Z,15.52
2023-04-16T07:28:33.268Z,14.93
2023-04-16T07:31:00.052Z,14.82
2023-04-16T07:33:27.484Z,12.80
2023-04-16T07:35:53.988Z,12.55
2023-04-16T07:38:20.708Z,12.52
2023-04-16T07:40:47.233Z,13.40
2023-04-16T07:43:15.430Z,12.52
2023-04-16T07:45:42.346Z,18.75
2023-04-16T07:48:08.900Z,11.13
2023-04-16T07:50:35.486Z,18.90
2023-04-16T07:53:03.162Z,12.10
2023-04-16T07:55:29.711Z,14.80
2023-04-16T07:57:56.260Z,14.35
2023-04-16T08:00:22.889Z,17.48
2023-04-16T08:02:49.638Z,18.15
2023-04-16T08:05:16.428Z,12.80
2023-04-16T08:07:43.135Z,13.63
2023-04-16T08:10:09.797Z,14.38
2023-04-16T08:12:36.327Z,9.40
2023-04-16T08:15:02.879Z,14.40
2023-04-16T08:17:30.108Z,9.80
2023-04-16T08:19:56.688Z,12.93
2023-04-16T08:22:23.317Z,14.65
2023-04-16T08:24:49.865Z,12.57
2023-04-16T08:27:19.666Z,11.48
2023-04-16T08:29:46.960Z,19.15
2023-04-16T08:32:13.564Z,10.00
2023-04-16T08:34:40.074Z,11.38
2023-04-16T08:37:06.593Z,14.50
2023-04-16T08:39:33.313Z,21.80
2023-04-16T08:42:02.848Z,13.80
2023-04-16T08:44:34.790Z,23.42
2023-04-16T08:47:02.375Z,14.43
2023-04-16T08:49:29.587Z,12.95
2023-04-16T08:51:56.958Z,13.63
2023-04-16T08:54:32.801Z,15.02
2023-04-16T08:56:59.867Z,17.35
2023-04-16T08:59:26.876Z,13.88
2023-04-16T09:01:57.944Z,16.17
2023-04-16T09:04:28.760Z,8.00
2023-04-16T09:06:56.814Z,16.60
2023-04-16T09:09:23.561Z,12.18
2023-04-16T09:11:53.995Z,11.57
2023-04-16T09:14:20.896Z,15.45
2023-04-16T09:16:48.148Z,19.38
2023-04-16T09:19:15.734Z,19.83
2023-04-16T09:21:43.107Z,12.55
2023-04-16T09:24:09.869Z,14.50
2023-04-16T09:26:36.642Z,17.25
2023-04-16T09:29:03.364Z,14.32
2023-04-16T09:31:30.266Z,12.63
2023-04-16T09:34:06.820Z,11.25
2023-04-16T09:36:34.333Z,12.20
2023-04-16T09:39:01.234Z,16.25
2023-04-16T09:41:29.721Z,15.40
2023-04-16T09:46:31.061Z,14.77
2023-04-16T09:48:58.120Z,13.73
2023-04-16T09:51:26.980Z,9.27
2023-04-16T09:53:56.362Z,13.77
2023-04-16T09:56:25.065Z,10.02
2023-04-16T09:58:53.609Z,15.32
2023-04-16T10:01:20.144Z,10.90
2023-04-16T10:03:49.799Z,19.63
2023-04-16T10:06:19.320Z,11.75
2023-04-16T10:08:50.574Z,13.80
2023-04-16T10:11:17.797Z,9.82
2023-04-16T10:13:44.683Z,12.75
2023-04-16T10:16:11.794Z,18.92
2023-04-16T10:18:40.495Z,13.85
2023-04-16T10:21:07.957Z,16.40
2023-04-16T10:23:34.849Z,15.52
2023-04-16T10:26:01.959Z,14.73
2023-04-16T10:28:29.568Z,11.70
2023-04-16T10:30:57.982Z,17.33
2023-04-16T10:36:06.784Z,16.55
2023-04-16T10:38:35.396Z,20.73
2023-04-16T10:41:04.138Z,11.68
2023-04-16T10:43:33.282Z,20.00
2023-04-16T10:46:24.101Z,13.68
2023-04-16T10:48:54.092Z,12.65
2023-04-16T10:51:34.786Z,13.52
2023-04-16T10:54:20.055Z,13.23
2023-04-16T10:56:47.043Z,14.48
2023-04-16T10:59:17.536Z,12.25
2023-04-16T11:01:45.957Z,11.90
2023-04-16T11:07:04.618Z,16.88
2023-04-16T11:10:00.106Z,15.85
2023-04-16T11:12:29.942Z,17.80
2023-04-16T11:15:23.421Z,16.98
2023-04-16T11:17:51.783Z,15.15
2023-04-16T11:20:21.207Z,11.88
2023-04-16T11:22:52.051Z,11.63
2023-04-16T11:25:26.207Z,20.98
2023-04-16T11:27:53.194Z,12.43
2023-04-16T11:30:31.556Z,13.40
2023-04-16T11:32:58.506Z,14.02
2023-04-16T11:35:25.162Z,13.98
2023-04-16T11:37:56.336Z,15.05
2023-04-16T11:40:22.911Z,16.40
2023-04-16T11:42:49.360Z,18.90
2023-04-16T11:45:15.825Z,13.13
2023-04-16T11:47:45.701Z,10.75
2023-04-16T11:50:22.327Z,11.23
2023-04-16T11:52:49.908Z,12.32
2023-04-16T11:55:16.706Z,15.48
2023-04-16T11:57:43.536Z,11.60
2023-04-16T12:00:16.457Z,13.32
2023-04-16T12:02:45.312Z,15.98
2023-04-16T12:05:34.045Z,10.50
2023-04-16T12:08:05.992Z,13.68
2023-04-16T12:10:37.559Z,11.52
2023-04-16T12:13:16.924Z,14.38
2023-04-16T12:15:54.353Z,15.25
2023-04-16T12:18:26.868Z,10.57
2023-04-16T12:20:53.735Z,10.88
2023-04-16T12:23:27.713Z,14.77
2023-04-16T12:25:55.248Z,7.82
2023-04-16T12:28:33.127Z,11.43
2023-04-16T12:30:59.909Z,15.00
2023-04-16T12:33:26.473Z,11.68
2023-04-16T12:35:52.967Z,12.65
2023-04-16T12:38:21.206Z,9.48
2023-04-16T12:40:48.735Z,14.63
2023-04-16T12:43:15.578Z,12.88
2023-04-16T12:45:42.177Z,16.05
2023-04-16T12:48:08.713Z,11.82
2023-04-16T12:50:35.530Z,11.00
2023-04-16T12:53:02.005Z,15.55
2023-04-16T12:55:28.618Z,12.80
2023-04-16T12:57:55.214Z,15.32
2023-04-16T13:00:22.579Z,11.52
2023-04-16T13:02:49.184Z,8.48
2023-04-16T13:05:17.297Z,13.88
2023-04-16T13:07:43.841Z,15.43
2023-04-16T13:10:10.897Z,15.88
2023-04-16T13:12:37.649Z,13.55
2023-04-16T13:15:04.893Z,13.65
2023-04-16T13:17:31.414Z,15.32
2023-04-16T13:19:57.969Z,13.77
2023-04-16T13:22:24.532Z,17.38
2023-04-16T13:24:51.064Z,20.23
2023-04-16T13:27:18.040Z,23.25
2023-04-16T13:29:44.873Z,22.40
2023-04-16T13:32:13.757Z,21.13
2023-04-16T13:34:40.358Z,14.27
2023-04-16T13:37:06.980Z,20.50
2023-04-16T13:39:34.097Z,16.45
2023-04-16T13:42:00.712Z,30.23
2023-04-16T13:44:27.247Z,16.80
2023-04-16T13:46:54.162Z,24.17
2023-04-16T13:49:20.701Z,25.23
2023-04-16T13:51:47.267Z,20.42
2023-04-16T13:54:13.817Z,21.15
2023-04-16T13:56:40.902Z,19.85
2023-04-16T13:59:08.127Z,23.00
2023-04-16T14:01:34.956Z,18.38
2023-04-16T14:04:06.448Z,16.58
2023-04-16T14:06:34.374Z,19.83
2023-04-16T14:09:01.275Z,18.92
2023-04-16T14:11:27.906Z,27.90
2023-04-16T14:13:54.790Z,20.90
2023-04-16T14:16:21.350Z,18.00
2023-04-16T14:18:47.976Z,20.00
2023-04-16T14:21:14.519Z,16.40
2023-04-16T14:23:41.187Z,20.77
2023-04-16T14:26:07.778Z,20.52
2023-04-16T14:28:35.876Z,21.60
2023-04-16T14:31:02.491Z,17.10
2023-04-16T14:33:29.196Z,14.52
2023-04-16T14:35:55.865Z,20.15
2023-04-16T14:38:22.427Z,19.65
2023-04-16T14:40:48.968Z,21.25
2023-04-16T14:43:15.565Z,14.10
2023-04-16T14:45:42.268Z,19.05
2023-04-16T14:48:08.867Z,23.85
2023-04-16T14:50:39.132Z,18.63
2023-04-16T14:53:05.959Z,23.05
2023-04-16T14:55:32.698Z,23.00
2023-04-16T14:58:00.054Z,19.10
2023-04-16T15:00:27.573Z,19.10
2023-04-16T15:02:57.699Z,15.82
2023-04-16T15:05:24.547Z,20.42
2023-04-16T15:07:51.284Z,23.75
2023-04-16T15:10:17.919Z,20.58
2023-04-16T15:12:44.488Z,17.73
2023-04-16T15:15:11.334Z,19.67
2023-04-16T15:17:37.970Z,18.88
2023-04-16T15:20:08.229Z,15.68
2023-04-16T15:22:35.225Z,17.73
2023-04-16T15:25:02.109Z,18.58
2023-04-16T15:27:28.602Z,16.65
2023-04-16T15:29:55.314Z,21.48
2023-04-16T15:32:21.902Z,24.42
2023-04-16T15:34:48.545Z,19.13
2023-04-16T15:37:15.512Z,21.50
2023-04-16T15:39:42.168Z,26.08
2023-04-16T15:42:08.774Z,15.45
2023-04-16T15:44:35.343Z,23.48
2023-04-16T15:47:01.834Z,17.02
2023-04-16T15:49:28.453Z,15.27
2023-04-16T15:51:55.721Z,15.43
2023-04-16T15:54:22.244Z,18.92
2023-04-16T15:56:48.824Z,20.25
2023-04-16T15:59:15.426Z,17.50
2023-04-16T16:01:42.279Z,22.70
2023-04-16T16:04:09.098Z,16.73
2023-04-16T16:06:37.916Z,16.88
2023-04-16T16:09:04.970Z,14.68
2023-04-16T16:11:32.585Z,16.90
2023-04-16T16:14:01.568Z,15.10
2023-04-16T16:16:28.600Z,20.55
2023-04-16T16:18:55.320Z,14.45
2023-04-16T16:21:22.204Z,18.63
2023-04-16T16:23:48.795Z,16.70
2023-04-16T16:26:15.351Z,16.65
2023-04-16T16:28:43.909Z,20.23
2023-04-16T16:31:12.228Z,15.15
2023-04-16T16:33:40.383Z,19.40
2023-04-16T16:36:10.566Z,27.55
2023-04-16T16:38:38.030Z,33.10
2023-04-16T16:41:04.564Z,18.50
2023-04-16T16:43:31.419Z,17.30
2023-04-16T16:45:57.951Z,17.92
2023-04-16T16:48:24.524Z,17.60
2023-04-16T16:50:51.024Z,19.50
2023-04-16T16:53:17.510Z,15.27
2023-04-16T16:55:44.034Z,18.33
2023-04-16T16:58:11.182Z,22.17
2023-04-16T17:00:38.076Z,20.45
2023-04-16T17:03:04.778Z,14.57
2023-04-16T17:05:31.588Z,24.05
2023-04-16T17:07:58.676Z,19.88
2023-04-16T17:10:25.325Z,16.77
2023-04-16T17:12:51.960Z,20.27
2023-04-16T17:15:21.467Z,17.58
2023-04-16T17:17:48.624Z,21.20
2023-04-16T17:20:15.642Z,20.40
2023-04-16T17:22:42.581Z,23.52
2023-04-16T17:25:09.905Z,22.23
2023-04-16T17:27:36.494Z,25.00
2023-04-16T17:30:05.330Z,22.52
2023-04-16T17:32:32.637Z,25.10
2023-04-16T17:35:00.949Z,24.33
2023-04-16T17:37:27.776Z,28.77
2023-04-16T17:39:54.414Z,30.77
2023-04-16T17:42:21.069Z,30.38
2023-04-16T17:44:47.675Z,23.52
2023-04-16T17:47:14.285Z,27.10
2023-04-16T17:49:40.990Z,26.13
2023-04-16T17:52:07.483Z,29.33
2023-04-16T17:54:34.035Z,28.88
2023-04-16T17:57:00.641Z,29.23
2023-04-16T17:59:27.463Z,25.30
2023-04-16T18:01:54.974Z,29.75
2023-04-16T18:04:21.725Z,34.38
2023-04-16T18:06:48.457Z,25.58
2023-04-16T18:09:15.512Z,27.08
2023-04-16T18:11:42.090Z,24.17
2023-04-16T18:14:09.857Z,27.92
2023-04-16T18:16:36.687Z,28.77
2023-04-16T18:19:03.286Z,28.42
2023-04-16T18:21:30.489Z,32.25
2023-04-16T18:23:57.633Z,28.20
2023-04-16T18:26:25.317Z,33.80
2023-04-16T18:28:51.938Z,28.45
2023-04-16T18:31:21.023Z,26.05
2023-04-16T18:33:56.296Z,26.92
2023-04-16T18:36:24.594Z,31.67
2023-04-16T18:39:01.091Z,32.22
2023-04-16T18:41:29.660Z,26.30
2023-04-16T18:43:56.329Z,31.10
2023-04-16T18:46:23.047Z,28.00
2023-04-16T18:48:49.731Z,27.02
2023-04-16T18:51:16.752Z,26.10
2023-04-16T18:53:45.433Z,25.55
2023-04-16T18:56:12.375Z,29.02
2023-04-16T18:58:38.932Z,31.27
2023-04-16T19:01:10.959Z,31.77
2023-04-16T19:03:38.210Z,31.88
2023-04-16T19:06:05.973Z,31.98
2023-04-16T19:08:32.717Z,31.63
2023-04-16T19:10:59.326Z,28.02
2023-04-16T19:13:26.006Z,32.40
2023-04-16T19:15:58.323Z,27.02
2023-04-16T19:18:24.905Z,32.13
2023-04-16T19:20:51.455Z,26.73
2023-04-16T19:23:18.032Z,34.78
2023-04-16T19:25:44.618Z,30.65
2023-04-16T19:28:11.150Z,30.23
2023-04-16T19:30:39.391Z,31.70
2023-04-16T19:33:05.962Z,34.95
2023-04-16T19:35:33.521Z,30.42
2023-04-16T19:38:00.232Z,31.70
2023-04-16T19:40:26.750Z,35.60
2023-04-16T19:42:53.223Z,35.63
2023-04-16T19:45:23.249Z,30.92
2023-04-16T19:47:51.259Z,29.33
2023-04-16T19:50:17.832Z,30.73
2023-04-16T19:52:44.324Z,29.60
2023-04-16T19:55:10.897Z,32.72
2023-04-16T19:57:37.510Z,30.60
2023-04-16T20:00:07.917Z,29.65
2023-04-16T20:02:34.513Z,30.58
2023-04-16T20:05:01.598Z,33.83
2023-04-16T20:07:28.097Z,32.85
2023-04-16T20:09:54.928Z,32.08
2023-04-16T20:12:21.472Z,28.02
2023-04-16T20:14:48.246Z,33.33
2023-04-16T20:17:19.505Z,37.65
2023-04-16T20:19:47.516Z,33.38
2023-04-16T20:22:14.961Z,34.78
2023-04-16T20:24:47.866Z,38.17
2023-04-16T20:27:15.161Z,32.38
2023-04-16T20:29:41.876Z,33.35
2023-04-16T20:32:08.447Z,36.92
2023-04-16T20:34:36.517Z,31.27
2023-04-16T20:37:03.372Z,43.08
2023-04-16T20:39:34.203Z,38.90
2023-04-16T20:42:00.947Z,34.75
2023-04-16T20:44:33.320Z,36.00
2023-04-16T20:47:00.089Z,37.55
2023-04-16T20:49:26.686Z,31.65
2023-04-16T20:51:53.423Z,40.17
2023-04-16T20:54:19.911Z,35.53
2023-04-16T20:56:47.194Z,40.00
2023-04-16T20:59:13.811Z,30.00
2023-04-16T21:01:40.791Z,33.83
2023-04-16T21:04:07.973Z,32.63
2023-04-16T21:06:38.560Z,31.52
2023-04-16T21:09:06.014Z,33.97
2023-04-16T21:11:34.709Z,43.45
2023-04-16T21:14:02.369Z,36.55
2023-04-16T21:16:29.244Z,37.33
2023-04-16T21:18:57.250Z,41.13
2023-04-16T21:21:24.162Z,38.47
2023-04-16T21:23:50.952Z,33.20
2023-04-16T21:26:17.417Z,38.50
2023-04-16T21:28:44.020Z,33.25
2023-04-16T21:31:10.561Z,33.45
2023-04-16T21:33:37.177Z,32.80
2023-04-16T21:36:03.810Z,35.50
2023-04-16T21:38:30.352Z,32.35
2023-04-16T21:40:56.888Z,39.55
2023-04-16T21:43:23.779Z,37.83
2023-04-16T21:45:53.938Z,35.15
2023-04-16T21:48:21.186Z,35.47
2023-04-16T21:50:47.699Z,38.85
2023-04-16T21:53:14.358Z,44.85
2023-04-16T21:55:42.192Z,41.13
2023-04-16T21:58:08.675Z,38.90
2023-04-16T22:00:35.243Z,37.28
2023-04-16T22:03:02.069Z,38.28
2023-04-16T22:05:29.684Z,39.60
2023-04-16T22:07:56.701Z,36.47
2023-04-16T22:10:23.200Z,39.47
2023-04-16T22:12:54.806Z,38.10
2023-04-16T22:15:21.338Z,34.33
2023-04-16T22:17:48.483Z,40.85
2023-04-16T22:20:15.745Z,41.67
2023-04-16T22:22:42.460Z,42.35
2023-04-16T22:25:09.831Z,43.00
2023-04-16T22:27:36.778Z,49.38
2023-04-16T22:30:04.094Z,44.13
2023-04-16T22:32:31.026Z,41.38
2023-04-16T22:34:57.709Z,41.58
2023-04-16T22:37:24.187Z,43.55
2023-04-16T22:39:50.760Z,37.45
2023-04-16T22:42:17.334Z,39.08
2023-04-16T22:44:43.803Z,46.63
2023-04-16T22:47:10.305Z,37.33
2023-04-16T22:49:36.843Z,42.55
2023-04-16T22:52:03.418Z,41.95
2023-04-16T22:54:33.323Z,39.60
2023-04-16T22:56:59.882Z,38.40
2023-04-16T22:59:26.389Z,40.50
2023-04-16T23:01:53.125Z,42.30
2023-04-16T23:04:19.870Z,45.50
2023-04-16T23:06:46.463Z,45.22
2023-04-16T23:09:13.289Z,45.75
2023-04-16T23:11:40.065Z,50.42
2023-04-16T23:14:07.625Z,47.00
2023-04-16T23:16:34.130Z,46.78
2023-04-16T23:19:00.909Z,46.42
2023-04-16T23:21:27.433Z,54.30
2023-04-16T23:23:54.347Z,50.90
2023-04-16T23:26:20.855Z,53.38
2023-04-16T23:28:47.372Z,55.50
2023-04-16T23:31:13.954Z,51.42
2023-04-16T23:33:40.696Z,58.75
2023-04-16T23:36:07.686Z,52.80
2023-04-16T23:38:34.209Z,58.45
2023-04-16T23:41:00.805Z,59.55
2023-04-16T23:43:27.351Z,61.78
2023-04-16T23:45:53.907Z,57.65
2023-04-16T23:48:20.407Z,62.58
2023-04-16T23:50:46.884Z,58.63
2023-04-16T23:53:13.346Z,48.20
2023-04-16T23:55:39.953Z,59.42
2023-04-16T23:58:06.479Z,62.97
